Time;durP1;ratioP1;P1;durP2;ratioP2;P2;SDS_P1;SDS_P2;PMS_P1;PMS_P2;Temp;Humidity;BMP_temperature;BMP_pressure;BME280_temperature;BME280_humidity;BME280_pressure;Samples;Min_cycle;Max_cycle;Signal;HPM_P1;HPM_P2
2023/03/07 00:00:33;;;;;;;12.80;6.18;;;;;;;;;;5161277;27;20163;-62
2023/03/07 00:03:00;;;;;;;8.52;5.78;;;;;;;;;;5145801;27;20558;-61
2023/03/07 00:05:26;;;;;;;12.50;6.50;;;;;;;;;;5148859;27;20078;-62
2023/03/07 00:07:52;;;;;;;11.82;5.72;;;;;;;;;;5156745;27;20483;-61
2023/03/07 00:10:19;;;;;;;12.27;6.40;;;;;;;;;;5145685;27;20074;-60
2023/03/07 00:12:45;;;;;;;10.30;6.55;;;;;;;;;;5160689;27;20500;-61
2023/03/07 00:15:11;;;;;;;14.18;7.38;;;;;;;;;;5166592;27;20399;-61
2023/03/07 00:17:38;;;;;;;14.75;7.07;;;;;;;;;;5165641;27;20572;-60
2023/03/07 00:20:06;;;;;;;16.48;7.00;;;;;;;;;;5165904;27;20047;-60
2023/03/07 00:22:33;;;;;;;16.05;6.55;;;;;;;;;;5165315;27;20503;-61
2023/03/07 00:24:59;;;;;;;16.33;7.20;;;;;;;;;;5165994;27;20521;-62
2023/03/07 00:27:26;;;;;;;8.80;5.47;;;;;;;;;;5166063;27;20522;-61
2023/03/07 00:29:52;;;;;;;13.10;5.43;;;;;;;;;;5165168;27;20043;-61
2023/03/07 00:32:18;;;;;;;17.00;6.38;;;;;;;;;;5163722;27;20562;-61
2023/03/07 00:34:45;;;;;;;16.23;6.47;;;;;;;;;;5162782;27;20888;-62
2023/03/07 00:37:12;;;;;;;14.25;6.60;;;;;;;;;;5165055;27;20058;-61
2023/03/07 00:39:39;;;;;;;15.80;5.55;;;;;;;;;;5163786;27;20515;-61
2023/03/07 00:42:05;;;;;;;13.65;5.70;;;;;;;;;;5154721;27;20048;-60
2023/03/07 00:44:31;;;;;;;11.57;5.90;;;;;;;;;;5146131;27;20047;-62
2023/03/07 00:46:58;;;;;;;19.23;5.68;;;;;;;;;;5164319;27;20309;-61
2023/03/07 00:49:25;;;;;;;14.27;5.50;;;;;;;;;;5164196;27;20100;-61
2023/03/07 00:51:51;;;;;;;11.70;5.72;;;;;;;;;;5153226;27;20499;-60
2023/03/07 00:54:17;;;;;;;15.00;5.38;;;;;;;;;;5164998;27;20500;-61
2023/03/07 00:56:44;;;;;;;12.98;5.85;;;;;;;;;;5154773;27;20377;-62
2023/03/07 00:59:10;;;;;;;17.13;5.72;;;;;;;;;;5163491;27;20050;-61
2023/03/07 01:01:36;;;;;;;14.45;6.00;;;;;;;;;;5146867;27;20071;-61
2023/03/07 01:04:03;;;;;;;11.73;5.90;;;;;;;;;;5164923;27;20054;-62
2023/03/07 01:06:31;;;;;;;7.35;3.90;;;;;;;;;;5165845;27;20055;-60
2023/03/07 01:09:03;;;;;;;6.85;4.10;;;;;;;;;;5165308;27;20051;-60
2023/03/07 01:11:30;;;;;;;7.57;3.72;;;;;;;;;;5160083;27;20039;-60
2023/03/07 01:13:57;;;;;;;9.40;3.92;;;;;;;;;;5148421;27;20100;-60
2023/03/07 01:16:25;;;;;;;7.45;3.53;;;;;;;;;;5165056;27;20115;-60
2023/03/07 01:18:53;;;;;;;8.48;3.70;;;;;;;;;;5164785;27;20046;-62
2023/03/07 01:21:21;;;;;;;5.95;2.88;;;;;;;;;;5156320;27;20047;-61
2023/03/07 01:23:47;;;;;;;6.70;3.13;;;;;;;;;;5160383;27;20142;-61
2023/03/07 01:26:15;;;;;;;5.25;2.90;;;;;;;;;;5148321;27;20053;-62
2023/03/07 01:28:42;;;;;;;6.80;2.95;;;;;;;;;;5164030;27;20051;-60
2023/03/07 01:31:08;;;;;;;7.05;3.05;;;;;;;;;;5165037;27;20054;-61
2023/03/07 01:33:35;;;;;;;4.68;3.70;;;;;;;;;;5138397;27;20540;-61
2023/03/07 01:36:02;;;;;;;6.53;2.85;;;;;;;;;;5150340;27;20051;-62
2023/03/07 01:38:32;;;;;;;5.97;2.97;;;;;;;;;;5147959;27;20043;-60
2023/03/07 01:41:02;;;;;;;4.35;2.88;;;;;;;;;;5147752;27;20130;-60
2023/03/07 01:43:32;;;;;;;4.47;2.72;;;;;;;;;;5163782;27;20215;-61
2023/03/07 01:46:02;;;;;;;7.60;2.70;;;;;;;;;;5161240;27;20054;-62
2023/03/07 01:48:28;;;;;;;8.13;2.60;;;;;;;;;;5163579;27;20232;-61
2023/03/07 01:50:54;;;;;;;7.28;2.55;;;;;;;;;;5161096;27;20051;-61
2023/03/07 01:53:21;;;;;;;8.70;2.47;;;;;;;;;;5148768;27;20063;-61
2023/03/07 01:55:47;;;;;;;8.70;2.40;;;;;;;;;;5147807;27;20070;-62
2023/03/07 01:58:14;;;;;;;9.07;2.80;;;;;;;;;;5144277;27;20131;-61
2023/03/07 02:00:41;;;;;;;8.15;2.20;;;;;;;;;;5144078;27;20050;-62
2023/03/07 02:03:13;;;;;;;8.77;1.92;;;;;;;;;;5154752;27;20081;-61
2023/03/07 02:05:41;;;;;;;5.00;1.70;;;;;;;;;;5165055;27;20069;-60
2023/03/07 02:08:10;;;;;;;12.43;2.97;;;;;;;;;;5167609;27;20051;-61
2023/03/07 02:10:37;;;;;;;7.40;1.98;;;;;;;;;;5168862;27;20564;-60
2023/03/07 02:13:04;;;;;;;9.30;2.38;;;;;;;;;;5168823;27;20047;-60
2023/03/07 02:15:32;;;;;;;9.05;2.88;;;;;;;;;;5166448;27;20062;-60
2023/03/07 02:17:58;;;;;;;6.47;2.00;;;;;;;;;;5148184;27;20527;-62
2023/03/07 02:20:24;;;;;;;6.60;2.30;;;;;;;;;;5151601;27;20074;-60
2023/03/07 02:22:52;;;;;;;13.77;3.22;;;;;;;;;;5168343;27;20058;-60
2023/03/07 02:25:22;;;;;;;5.13;2.15;;;;;;;;;;5164656;27;20046;-60
2023/03/07 02:27:51;;;;;;;6.13;2.03;;;;;;;;;;5165831;27;20518;-59
2023/03/07 02:30:18;;;;;;;6.68;2.47;;;;;;;;;;5165944;27;20097;-60
2023/03/07 02:32:45;;;;;;;11.63;2.30;;;;;;;;;;5167278;27;20051;-60
2023/03/07 02:35:17;;;;;;;9.45;2.78;;;;;;;;;;5165074;27;20055;-61
2023/03/07 02:37:45;;;;;;;17.13;4.57;;;;;;;;;;5160176;27;20047;-61
2023/03/07 02:40:13;;;;;;;10.95;2.58;;;;;;;;;;5158305;27;20074;-60
2023/03/07 02:42:41;;;;;;;7.22;2.63;;;;;;;;;;5165846;27;20553;-61
2023/03/07 02:45:09;;;;;;;14.20;3.65;;;;;;;;;;5164072;27;20416;-62
2023/03/07 02:47:35;;;;;;;6.22;2.55;;;;;;;;;;5166736;27;20047;-60
2023/03/07 02:50:02;;;;;;;7.45;2.58;;;;;;;;;;5165012;27;20051;-61
2023/03/07 02:52:28;;;;;;;9.85;3.35;;;;;;;;;;5142185;27;20559;-62
2023/03/07 02:54:55;;;;;;;9.38;2.35;;;;;;;;;;5168016;27;20046;-62
2023/03/07 02:57:21;;;;;;;10.80;3.25;;;;;;;;;;5168201;27;20046;-62
2023/03/07 02:59:48;;;;;;;7.63;2.38;;;;;;;;;;5148187;27;20135;-62
2023/03/07 03:02:14;;;;;;;7.03;2.83;;;;;;;;;;5146851;27;20672;-61
2023/03/07 03:04:40;;;;;;;8.65;2.25;;;;;;;;;;5163644;27;20420;-62
2023/03/07 03:07:07;;;;;;;8.35;2.85;;;;;;;;;;5144447;27;20535;-61
2023/03/07 03:09:33;;;;;;;10.27;2.83;;;;;;;;;;5146984;27;20047;-62
2023/03/07 03:12:00;;;;;;;10.75;2.90;;;;;;;;;;5166328;27;20050;-61
2023/03/07 03:14:26;;;;;;;8.02;2.10;;;;;;;;;;5166870;27;20054;-61
2023/03/07 03:16:53;;;;;;;8.55;2.83;;;;;;;;;;5167439;27;20071;-62
2023/03/07 03:19:19;;;;;;;9.60;2.08;;;;;;;;;;5166932;27;20138;-61
2023/03/07 03:21:46;;;;;;;12.73;2.97;;;;;;;;;;5166159;27;20051;-62
2023/03/07 03:24:13;;;;;;;9.38;2.72;;;;;;;;;;5165629;27;20051;-61
2023/03/07 03:26:39;;;;;;;11.57;2.60;;;;;;;;;;5166096;27;20123;-63
2023/03/07 03:29:05;;;;;;;9.55;2.75;;;;;;;;;;5165208;27;20117;-61
2023/03/07 03:31:32;;;;;;;7.68;2.33;;;;;;;;;;5164702;27;20050;-62
2023/03/07 03:33:58;;;;;;;9.98;2.65;;;;;;;;;;5165734;27;20684;-62
2023/03/07 03:36:25;;;;;;;7.70;2.42;;;;;;;;;;5166915;27;20466;-62
2023/03/07 03:38:52;;;;;;;13.50;3.00;;;;;;;;;;5166014;27;20597;-62
2023/03/07 03:41:19;;;;;;;5.57;2.63;;;;;;;;;;5164782;27;20046;-61
2023/03/07 03:43:45;;;;;;;7.68;2.80;;;;;;;;;;5164184;27;20046;-62
2023/03/07 03:46:11;;;;;;;4.45;2.45;;;;;;;;;;5164557;27;20051;-60
2023/03/07 03:48:39;;;;;;;20.10;2.58;;;;;;;;;;5166229;27;20054;-62
2023/03/07 03:51:07;;;;;;;12.02;3.30;;;;;;;;;;5161772;27;20142;-63
2023/03/07 03:53:35;;;;;;;12.55;2.80;;;;;;;;;;5164212;27;20047;-61
2023/03/07 03:56:02;;;;;;;9.27;2.30;;;;;;;;;;5165339;27;20527;-61
2023/03/07 03:58:28;;;;;;;8.27;2.67;;;;;;;;;;5162934;27;20065;-60
2023/03/07 04:00:55;;;;;;;6.43;2.70;;;;;;;;;;5163713;27;20051;-61
2023/03/07 04:03:21;;;;;;;10.25;2.40;;;;;;;;;;5146041;27;20054;-59
2023/03/07 04:05:47;;;;;;;8.90;2.72;;;;;;;;;;5145540;27;20596;-59
2023/03/07 04:08:14;;;;;;;9.27;2.33;;;;;;;;;;5145883;27;20055;-60
2023/03/07 04:10:40;;;;;;;7.57;2.33;;;;;;;;;;5145668;27;20051;-60
2023/03/07 04:13:07;;;;;;;12.40;2.65;;;;;;;;;;5145183;27;20082;-61
2023/03/07 04:15:33;;;;;;;13.07;2.50;;;;;;;;;;5146233;27;20165;-61
2023/03/07 04:17:59;;;;;;;10.82;2.90;;;;;;;;;;5146038;27;20055;-61
2023/03/07 04:20:26;;;;;;;7.35;2.50;;;;;;;;;;5153763;27;20134;-60
2023/03/07 04:22:52;;;;;;;11.45;2.17;;;;;;;;;;5165621;27;20080;-60
2023/03/07 04:25:18;;;;;;;7.68;2.53;;;;;;;;;;5161226;27;20092;-61
2023/03/07 04:27:45;;;;;;;10.75;3.58;;;;;;;;;;5158970;27;20073;-61
2023/03/07 04:30:11;;;;;;;7.40;2.38;;;;;;;;;;5161226;27;20051;-61
2023/03/07 04:32:38;;;;;;;9.18;2.30;;;;;;;;;;5141060;27;20096;-61
2023/03/07 04:35:04;;;;;;;8.25;2.00;;;;;;;;;;5146007;27;20046;-60
2023/03/07 04:37:31;;;;;;;7.47;1.80;;;;;;;;;;5166433;27;20051;-62
2023/03/07 04:39:57;;;;;;;7.75;3.22;;;;;;;;;;5164513;27;20046;-61
2023/03/07 04:42:24;;;;;;;5.88;2.40;;;;;;;;;;5149601;27;20499;-60
2023/03/07 04:44:50;;;;;;;7.15;2.38;;;;;;;;;;5157776;27;20046;-62
2023/03/07 04:47:16;;;;;;;18.17;2.72;;;;;;;;;;5158319;27;20051;-59
2023/03/07 04:49:43;;;;;;;6.50;1.83;;;;;;;;;;5155435;27;20142;-60
2023/03/07 04:52:09;;;;;;;5.18;1.73;;;;;;;;;;5165530;27;20050;-61
2023/03/07 04:54:35;;;;;;;6.40;1.95;;;;;;;;;;5163443;27;20055;-62
2023/03/07 04:57:02;;;;;;;7.60;1.75;;;;;;;;;;5145296;27;20440;-62
2023/03/07 04:59:29;;;;;;;3.65;1.13;;;;;;;;;;5159845;27;20058;-62
2023/03/07 05:01:55;;;;;;;16.20;1.45;;;;;;;;;;5144524;27;20096;-61
2023/03/07 05:04:21;;;;;;;4.82;1.25;;;;;;;;;;5161611;27;20047;-61
2023/03/07 05:06:48;;;;;;;11.10;1.23;;;;;;;;;;5164107;27;20051;-62
2023/03/07 05:09:14;;;;;;;1.77;1.10;;;;;;;;;;5164619;27;20576;-61
2023/03/07 05:11:40;;;;;;;6.13;1.45;;;;;;;;;;5164296;27;20042;-61
2023/03/07 05:14:07;;;;;;;4.20;1.00;;;;;;;;;;5162777;27;20062;-62
2023/03/07 05:16:34;;;;;;;2.15;0.70;;;;;;;;;;5164134;27;20066;-61
2023/03/07 05:19:00;;;;;;;2.53;0.90;;;;;;;;;;5146009;27;20119;-62
2023/03/07 05:21:30;;;;;;;12.45;1.60;;;;;;;;;;5145643;27;20051;-61
2023/03/07 05:23:56;;;;;;;6.28;0.70;;;;;;;;;;5149309;27;20047;-62
2023/03/07 05:26:22;;;;;;;8.38;1.42;;;;;;;;;;5163328;27;20543;-62
2023/03/07 05:28:49;;;;;;;7.13;1.02;;;;;;;;;;5163302;27;20138;-63
2023/03/07 05:31:15;;;;;;;8.20;1.30;;;;;;;;;;5158286;27;20148;-61
2023/03/07 05:33:43;;;;;;;4.60;1.00;;;;;;;;;;5164494;27;20058;-62
2023/03/07 05:36:10;;;;;;;2.47;0.90;;;;;;;;;;5162968;27;20042;-61
2023/03/07 05:38:36;;;;;;;2.85;0.85;;;;;;;;;;5148131;27;20050;-62
2023/03/07 05:41:02;;;;;;;3.95;0.95;;;;;;;;;;5144062;27;20062;-64
2023/03/07 05:43:29;;;;;;;3.53;0.70;;;;;;;;;;5161325;27;20051;-61
2023/03/07 05:45:55;;;;;;;2.42;0.60;;;;;;;;;;5159853;27;20039;-62
2023/03/07 05:48:21;;;;;;;3.63;0.80;;;;;;;;;;5153160;27;20294;-62
2023/03/07 05:50:48;;;;;;;3.30;0.68;;;;;;;;;;5143625;27;20146;-61
2023/03/07 05:53:14;;;;;;;4.75;0.80;;;;;;;;;;5143757;27;20050;-61
2023/03/07 05:55:40;;;;;;;4.05;1.20;;;;;;;;;;5160234;27;20304;-63
2023/03/07 05:58:07;;;;;;;3.55;0.70;;;;;;;;;;5159706;27;20047;-61
2023/03/07 06:00:33;;;;;;;5.25;0.70;;;;;;;;;;5164519;27;20057;-62
2023/03/07 06:03:00;;;;;;;4.90;1.33;;;;;;;;;;5162108;27;20111;-61
2023/03/07 06:05:26;;;;;;;1.80;0.80;;;;;;;;;;5164384;27;20513;-62
2023/03/07 06:07:53;;;;;;;10.57;1.88;;;;;;;;;;5148222;27;20046;-61
2023/03/07 06:10:19;;;;;;;8.90;0.82;;;;;;;;;;5163855;27;20046;-61
2023/03/07 06:12:49;;;;;;;5.18;0.63;;;;;;;;;;5149265;27;20057;-60
2023/03/07 06:15:16;;;;;;;4.60;0.95;;;;;;;;;;5161941;27;20421;-60
2023/03/07 06:17:43;;;;;;;1.95;0.88;;;;;;;;;;5161798;27;20057;-61
2023/03/07 06:20:10;;;;;;;3.33;0.85;;;;;;;;;;5164348;27;20099;-61
2023/03/07 06:22:39;;;;;;;1.95;0.98;;;;;;;;;;5124954;27;20524;-61
2023/03/07 06:25:06;;;;;;;4.53;1.23;;;;;;;;;;5144142;27;20092;-60
2023/03/07 06:27:33;;;;;;;4.63;0.98;;;;;;;;;;5159747;27;20053;-61
2023/03/07 06:30:00;;;;;;;2.90;1.15;;;;;;;;;;5165331;27;20145;-61
2023/03/07 06:32:26;;;;;;;1.92;0.73;;;;;;;;;;5149223;27;20062;-61
2023/03/07 06:34:52;;;;;;;7.60;1.20;;;;;;;;;;5143372;27;20051;-61
2023/03/07 06:37:18;;;;;;;2.00;1.17;;;;;;;;;;5145957;27;20054;-62
2023/03/07 06:39:45;;;;;;;5.60;1.00;;;;;;;;;;5143728;27;20059;-62
2023/03/07 06:42:11;;;;;;;3.58;1.65;;;;;;;;;;5156413;27;21862;-61
2023/03/07 06:44:38;;;;;;;4.85;1.27;;;;;;;;;;5152050;27;20137;-63
2023/03/07 06:47:04;;;;;;;6.95;1.48;;;;;;;;;;5153610;27;20654;-63
2023/03/07 06:49:30;;;;;;;4.70;1.50;;;;;;;;;;5153933;27;20050;-62
2023/03/07 06:51:57;;;;;;;3.20;0.85;;;;;;;;;;5162495;27;20129;-62
2023/03/07 06:54:23;;;;;;;2.22;0.90;;;;;;;;;;5164635;27;20050;-61
2023/03/07 06:56:50;;;;;;;2.70;1.17;;;;;;;;;;5163690;27;20043;-60
2023/03/07 06:59:16;;;;;;;1.90;0.98;;;;;;;;;;5162084;27;20046;-62
2023/03/07 07:01:43;;;;;;;6.55;1.08;;;;;;;;;;5154461;27;20047;-61
2023/03/07 07:04:10;;;;;;;1.80;0.80;;;;;;;;;;5130501;27;20542;-61
2023/03/07 07:06:36;;;;;;;10.88;1.55;;;;;;;;;;5153395;27;20047;-61
2023/03/07 07:09:06;;;;;;;4.50;1.08;;;;;;;;;;5165254;27;20185;-60
2023/03/07 07:11:32;;;;;;;4.05;0.95;;;;;;;;;;5148212;27;20525;-62
2023/03/07 07:13:58;;;;;;;2.28;1.00;;;;;;;;;;5160609;27;20078;-61
2023/03/07 07:16:25;;;;;;;8.57;2.17;;;;;;;;;;5154132;27;20059;-61
2023/03/07 07:18:51;;;;;;;2.97;1.33;;;;;;;;;;5150102;27;20051;-61
2023/03/07 07:21:18;;;;;;;2.33;1.50;;;;;;;;;;5153644;27;20519;-61
2023/03/07 07:23:44;;;;;;;3.30;1.90;;;;;;;;;;5152834;27;20050;-61
2023/03/07 07:26:11;;;;;;;10.45;2.33;;;;;;;;;;5146109;27;20130;-61
2023/03/07 07:28:37;;;;;;;8.52;2.05;;;;;;;;;;5148015;27;20543;-61
2023/03/07 07:31:04;;;;;;;5.45;2.35;;;;;;;;;;5154964;27;20094;-60
2023/03/07 07:33:30;;;;;;;6.22;2.80;;;;;;;;;;5146786;27;20055;-61
2023/03/07 07:35:57;;;;;;;3.33;2.60;;;;;;;;;;5148309;27;20051;-62
2023/03/07 07:38:23;;;;;;;5.70;2.97;;;;;;;;;;5154023;27;20051;-61
2023/03/07 07:40:50;;;;;;;7.18;2.72;;;;;;;;;;5145820;27;20547;-62
2023/03/07 07:43:16;;;;;;;6.38;2.92;;;;;;;;;;5139390;27;20062;-61
2023/03/07 07:45:43;;;;;;;4.70;3.10;;;;;;;;;;5164824;27;20074;-61
2023/03/07 07:48:09;;;;;;;5.22;3.25;;;;;;;;;;5156682;27;20074;-60
2023/03/07 07:50:36;;;;;;;7.20;3.15;;;;;;;;;;5155432;27;20104;-60
2023/03/07 07:53:03;;;;;;;10.40;3.45;;;;;;;;;;5157407;27;20042;-61
2023/03/07 07:55:29;;;;;;;4.25;2.85;;;;;;;;;;5138950;27;20051;-60
2023/03/07 07:57:55;;;;;;;4.00;3.17;;;;;;;;;;5144890;27;20050;-60
2023/03/07 08:00:22;;;;;;;5.05;2.78;;;;;;;;;;5165468;27;20162;-60
2023/03/07 08:02:49;;;;;;;5.95;2.53;;;;;;;;;;5137232;27;20093;-62
2023/03/07 08:05:16;;;;;;;5.85;2.88;;;;;;;;;;5153977;27;20046;-60
2023/03/07 08:07:42;;;;;;;3.92;2.80;;;;;;;;;;5152161;27;20057;-61
2023/03/07 08:10:09;;;;;;;5.35;3.08;;;;;;;;;;5158700;27;20139;-62
2023/03/07 08:12:36;;;;;;;8.80;3.58;;;;;;;;;;5145959;27;20058;-62
2023/03/07 08:15:03;;;;;;;5.68;3.08;;;;;;;;;;5157107;27;20516;-61
2023/03/07 08:17:29;;;;;;;7.90;3.28;;;;;;;;;;5157877;27;20095;-62
2023/03/07 08:20:00;;;;;;;6.25;3.00;;;;;;;;;;5161481;27;20099;-62
2023/03/07 08:22:27;;;;;;;8.20;2.92;;;;;;;;;;5157620;27;20066;-62
2023/03/07 08:24:53;;;;;;;5.05;3.00;;;;;;;;;;5153040;27;20527;-62
2023/03/07 08:27:19;;;;;;;4.32;3.25;;;;;;;;;;5151483;27;20047;-62
2023/03/07 08:29:48;;;;;;;12.25;3.50;;;;;;;;;;5153536;27;20095;-61
2023/03/07 08:32:15;;;;;;;7.32;2.90;;;;;;;;;;5145783;27;20047;-62
2023/03/07 08:34:41;;;;;;;9.63;3.78;;;;;;;;;;5148659;27;20058;-62
2023/03/07 08:37:08;;;;;;;4.65;3.42;;;;;;;;;;5155978;27;20051;-63
2023/03/07 08:39:34;;;;;;;8.48;2.55;;;;;;;;;;5146705;27;20131;-61
2023/03/07 08:42:00;;;;;;;3.92;2.90;;;;;;;;;;5163480;27;20504;-61
2023/03/07 08:44:27;;;;;;;5.53;2.33;;;;;;;;;;5157673;27;20051;-64
2023/03/07 08:46:54;;;;;;;7.25;2.75;;;;;;;;;;5165558;27;20054;-61
2023/03/07 08:49:20;;;;;;;5.53;2.90;;;;;;;;;;5164699;27;20348;-61
2023/03/07 08:51:47;;;;;;;8.18;2.90;;;;;;;;;;5160608;27;20061;-61
2023/03/07 08:54:13;;;;;;;5.05;3.10;;;;;;;;;;5155363;27;20061;-62
2023/03/07 08:56:39;;;;;;;6.38;2.85;;;;;;;;;;5153424;27;20054;-61
2023/03/07 08:59:06;;;;;;;4.18;2.58;;;;;;;;;;5148157;27;20485;-62
2023/03/07 09:01:32;;;;;;;4.88;2.90;;;;;;;;;;5149998;27;20054;-64
2023/03/07 09:03:58;;;;;;;4.70;3.15;;;;;;;;;;5146641;27;20047;-61
2023/03/07 09:06:25;;;;;;;3.67;2.55;;;;;;;;;;5154533;27;20240;-62
2023/03/07 09:08:51;;;;;;;4.60;3.15;;;;;;;;;;5152355;27;20054;-61
2023/03/07 09:11:18;;;;;;;3.45;2.70;;;;;;;;;;5148395;27;20085;-61
2023/03/07 09:13:44;;;;;;;8.77;2.90;;;;;;;;;;5149453;27;20354;-60
2023/03/07 09:16:18;;;;;;;4.32;2.75;;;;;;;;;;5144146;27;20108;-59
2023/03/07 09:18:44;;;;;;;10.23;2.80;;;;;;;;;;5165113;27;20047;-60
2023/03/07 09:21:11;;;;;;;6.13;2.97;;;;;;;;;;5160407;27;20051;-60
2023/03/07 09:23:37;;;;;;;6.32;3.20;;;;;;;;;;5164610;27;20753;-60
2023/03/07 09:26:04;;;;;;;4.63;2.63;;;;;;;;;;5144432;27;20057;-60
2023/03/07 09:28:31;;;;;;;4.07;2.50;;;;;;;;;;5143391;27;20047;-62
2023/03/07 09:30:57;;;;;;;5.72;3.17;;;;;;;;;;5160546;27;20606;-61
2023/03/07 09:33:24;;;;;;;5.70;2.72;;;;;;;;;;5154741;27;20050;-60
2023/03/07 09:35:50;;;;;;;4.47;2.45;;;;;;;;;;5156714;27;20523;-60
2023/03/07 09:38:16;;;;;;;7.65;2.55;;;;;;;;;;5150072;27;20580;-60
2023/03/07 09:40:45;;;;;;;4.35;2.63;;;;;;;;;;5154591;27;20471;-61
2023/03/07 09:43:15;;;;;;;4.68;2.83;;;;;;;;;;5145418;27;20044;-61
2023/03/07 09:45:47;;;;;;;6.55;1.77;;;;;;;;;;5143409;27;20143;-60
2023/03/07 09:48:19;;;;;;;4.53;2.20;;;;;;;;;;5152695;27;20665;-59
2023/03/07 09:50:54;;;;;;;28.27;17.75;;;;;;;;;;5150783;27;20061;-60
2023/03/07 09:53:34;;;;;;;6.80;5.90;;;;;;;;;;5156474;27;20056;-60
2023/03/07 09:56:04;;;;;;;4.82;3.17;;;;;;;;;;5149413;27;20051;-61
2023/03/07 09:58:31;;;;;;;8.63;2.83;;;;;;;;;;5142857;27;20055;-59
2023/03/07 10:01:00;;;;;;;4.35;1.80;;;;;;;;;;5145981;27;20141;-59
2023/03/07 10:03:37;;;;;;;6.68;3.10;;;;;;;;;;5142570;27;20074;-60
2023/03/07 10:06:15;;;;;;;4.82;2.40;;;;;;;;;;5143780;27;20051;-59
2023/03/07 10:08:41;;;;;;;4.60;2.15;;;;;;;;;;5143685;27;20097;-59
2023/03/07 10:11:27;;;;;;;5.10;2.70;;;;;;;;;;5150785;27;20047;-60
2023/03/07 10:14:17;;;;;;;4.35;2.33;;;;;;;;;;5153275;27;20062;-59
2023/03/07 10:16:49;;;;;;;4.22;1.92;;;;;;;;;;5128508;27;20054;-59
2023/03/07 10:19:20;;;;;;;3.42;1.58;;;;;;;;;;5156198;27;20078;-60
2023/03/07 10:21:53;;;;;;;2.58;1.30;;;;;;;;;;5141657;27;20650;-61
2023/03/07 10:24:22;;;;;;;2.58;1.30;;;;;;;;;;5141978;27;20427;-60
2023/03/07 10:27:05;;;;;;;4.45;1.35;;;;;;;;;;5151786;27;20054;-60
2023/03/07 10:29:52;;;;;;;3.65;1.52;;;;;;;;;;5160744;27;20716;-62
2023/03/07 10:32:35;;;;;;;3.45;1.55;;;;;;;;;;5164191;27;20238;-61
2023/03/07 10:35:11;;;;;;;6.30;1.55;;;;;;;;;;5146315;27;20171;-62
2023/03/07 10:37:44;;;;;;;5.72;2.03;;;;;;;;;;5161219;27;20051;-61
2023/03/07 10:40:15;;;;;;;2.20;1.50;;;;;;;;;;5130424;27;20039;-59
2023/03/07 10:42:42;;;;;;;2.80;1.40;;;;;;;;;;5156309;27;20174;-61
2023/03/07 10:45:11;;;;;;;7.55;1.80;;;;;;;;;;5151894;27;20051;-61
2023/03/07 10:47:38;;;;;;;3.42;1.48;;;;;;;;;;5163683;27;20054;-62
2023/03/07 10:50:07;;;;;;;4.20;1.00;;;;;;;;;;5153665;27;20054;-61
2023/03/07 10:52:37;;;;;;;3.83;0.98;;;;;;;;;;5153677;27;20075;-59
2023/03/07 10:55:23;;;;;;;1.58;0.68;;;;;;;;;;5149711;27;20050;-59
2023/03/07 10:57:49;;;;;;;4.17;1.13;;;;;;;;;;5147774;27;20518;-61
2023/03/07 11:00:16;;;;;;;5.55;1.17;;;;;;;;;;5154459;27;20265;-60
2023/03/07 11:02:44;;;;;;;2.45;0.85;;;;;;;;;;5153804;27;20488;-61
2023/03/07 11:05:39;;;;;;;5.82;1.50;;;;;;;;;;5147382;27;20107;-60
2023/03/07 11:08:25;;;;;;;6.18;1.52;;;;;;;;;;5161133;27;20512;-59
2023/03/07 11:10:52;;;;;;;1.92;0.88;;;;;;;;;;5145951;27;20050;-60
2023/03/07 11:13:20;;;;;;;1.35;0.90;;;;;;;;;;5152828;27;20363;-61
2023/03/07 11:15:47;;;;;;;3.90;1.17;;;;;;;;;;5146857;27;20059;-60
2023/03/07 11:18:24;;;;;;;1.55;0.65;;;;;;;;;;5151947;27;20063;-60
2023/03/07 11:20:51;;;;;;;2.25;0.77;;;;;;;;;;5147764;27;20062;-60
2023/03/07 11:23:28;;;;;;;2.58;0.80;;;;;;;;;;5153384;27;20058;-60
2023/03/07 11:25:56;;;;;;;2.30;0.82;;;;;;;;;;5150218;27;20398;-59
2023/03/07 11:28:29;;;;;;;2.15;1.08;;;;;;;;;;5159913;27;20053;-60
2023/03/07 11:30:56;;;;;;;2.38;0.68;;;;;;;;;;5162133;27;20078;-59
2023/03/07 11:33:22;;;;;;;1.95;0.70;;;;;;;;;;5150146;27;20759;-58
2023/03/07 11:35:49;;;;;;;3.13;0.95;;;;;;;;;;5145246;27;20079;-58
2023/03/07 11:38:24;;;;;;;2.90;0.82;;;;;;;;;;5145501;27;20091;-60
2023/03/07 11:40:53;;;;;;;2.65;0.73;;;;;;;;;;5156468;27;20050;-60
2023/03/07 11:43:40;;;;;;;1.25;0.77;;;;;;;;;;5154755;27;20361;-59
2023/03/07 11:46:15;;;;;;;4.70;1.02;;;;;;;;;;5148445;27;20448;-60
2023/03/07 11:49:08;;;;;;;4.22;0.93;;;;;;;;;;5149787;27;20130;-60
2023/03/07 11:51:34;;;;;;;3.92;2.22;;;;;;;;;;5143336;27;20051;-59
2023/03/07 11:54:14;;;;;;;2.85;1.40;;;;;;;;;;5147659;27;20684;-59
2023/03/07 11:56:45;;;;;;;5.20;1.15;;;;;;;;;;5147578;27;20053;-59
2023/03/07 11:59:14;;;;;;;3.85;1.17;;;;;;;;;;5150539;27;20050;-60
2023/03/07 12:01:47;;;;;;;2.50;1.10;;;;;;;;;;5147447;27;20074;-60
2023/03/07 12:04:13;;;;;;;2.70;1.23;;;;;;;;;;5156767;27;20054;-60
2023/03/07 12:06:51;;;;;;;3.38;1.77;;;;;;;;;;5155044;27;20127;-60
2023/03/07 12:09:20;;;;;;;2.97;1.17;;;;;;;;;;5146869;27;20042;-61
2023/03/07 12:12:03;;;;;;;2.28;1.42;;;;;;;;;;5146469;27;20043;-61
2023/03/07 12:14:42;;;;;;;3.88;1.20;;;;;;;;;;5162030;27;20115;-60
2023/03/07 12:17:14;;;;;;;2.33;0.90;;;;;;;;;;5162957;27;20107;-59
2023/03/07 12:20:10;;;;;;;3.50;0.75;;;;;;;;;;5131253;27;20055;-60
2023/03/07 12:22:46;;;;;;;2.92;0.65;;;;;;;;;;5123900;27;20039;-61
2023/03/07 12:25:12;;;;;;;;;;;;;;;;;;5144881;27;20574;-61
2023/03/07 12:27:44;;;;;;;5.40;0.93;;;;;;;;;;5143157;27;45765;-62
2023/03/07 12:30:17;;;;;;;3.15;0.82;;;;;;;;;;5154698;27;20102;-61
2023/03/07 12:32:43;;;;;;;1.20;0.40;;;;;;;;;;5151625;27;20043;-61
2023/03/07 12:35:19;;;;;;;4.32;0.52;;;;;;;;;;5149448;27;20141;-61
2023/03/07 12:37:48;;;;;;;2.55;0.50;;;;;;;;;;5150753;27;20500;-61
2023/03/07 12:40:20;;;;;;;4.07;0.65;;;;;;;;;;5154472;27;20046;-60
2023/03/07 12:42:57;;;;;;;6.38;0.68;;;;;;;;;;5144562;27;20608;-61
2023/03/07 12:45:26;;;;;;;0.50;0.50;;;;;;;;;;5149268;27;20047;-60
2023/03/07 12:47:52;;;;;;;3.92;1.25;;;;;;;;;;5148694;27;20082;-61
2023/03/07 12:50:21;;;;;;;3.50;1.10;;;;;;;;;;5158023;27;20066;-60
2023/03/07 12:52:52;;;;;;;1.40;0.95;;;;;;;;;;5153990;27;20600;-61
2023/03/07 12:55:22;;;;;;;4.57;0.88;;;;;;;;;;5149168;27;20043;-60
2023/03/07 12:57:56;;;;;;;3.03;0.85;;;;;;;;;;5160054;27;20051;-60
2023/03/07 13:00:23;;;;;;;3.50;0.60;;;;;;;;;;5142659;27;20049;-60
2023/03/07 13:03:00;;;;;;;2.42;0.50;;;;;;;;;;5155098;27;20051;-60
2023/03/07 13:05:27;;;;;;;0.70;0.47;;;;;;;;;;5148640;27;20473;-61
2023/03/07 13:07:54;;;;;;;4.65;0.95;;;;;;;;;;5154382;27;20051;-61
2023/03/07 13:10:22;;;;;;;2.72;1.08;;;;;;;;;;5144118;27;20874;-61
2023/03/07 13:12:49;;;;;;;3.15;0.90;;;;;;;;;;5155797;27;20516;-60
2023/03/07 13:15:15;;;;;;;1.50;0.80;;;;;;;;;;5150460;27;20528;-61
2023/03/07 13:17:41;;;;;;;1.73;0.70;;;;;;;;;;5155397;27;20051;-60
2023/03/07 13:20:28;;;;;;;5.80;1.73;;;;;;;;;;5145713;27;20599;-62
2023/03/07 13:22:55;;;;;;;2.28;0.40;;;;;;;;;;5158784;27;20599;-61
2023/03/07 13:25:22;;;;;;;2.85;0.90;;;;;;;;;;5154014;27;20065;-59
2023/03/07 13:27:53;;;;;;;1.85;1.20;;;;;;;;;;5154228;27;20081;-60
2023/03/07 13:30:20;;;;;;;1.73;0.93;;;;;;;;;;5146377;27;20043;-59
2023/03/07 13:32:49;;;;;;;4.13;1.00;;;;;;;;;;5148888;27;20600;-61
2023/03/07 13:35:28;;;;;;;1.98;0.85;;;;;;;;;;5149269;27;20085;-60
2023/03/07 13:38:02;;;;;;;1.98;0.68;;;;;;;;;;5144135;27;20051;-61
2023/03/07 13:40:47;;;;;;;5.95;1.13;;;;;;;;;;5154650;27;20047;-60
2023/03/07 13:43:22;;;;;;;9.45;1.35;;;;;;;;;;5143188;27;20051;-60
2023/03/07 13:45:55;;;;;;;3.88;1.00;;;;;;;;;;5150417;27;20515;-60
2023/03/07 13:48:30;;;;;;;2.92;1.48;;;;;;;;;;5149922;27;20077;-60
2023/03/07 13:50:59;;;;;;;2.65;1.10;;;;;;;;;;5154342;27;20050;-61
2023/03/07 13:53:34;;;;;;;5.93;1.10;;;;;;;;;;5153381;27;20449;-61
2023/03/07 13:56:07;;;;;;;4.10;1.17;;;;;;;;;;5162549;27;20038;-61
2023/03/07 13:58:36;;;;;;;2.55;1.00;;;;;;;;;;5157582;27;20051;-61
2023/03/07 14:01:12;;;;;;;3.25;1.35;;;;;;;;;;5157405;27;20618;-60
2023/03/07 14:03:44;;;;;;;6.50;0.93;;;;;;;;;;5156285;27;20516;-59
2023/03/07 14:06:17;;;;;;;4.32;1.23;;;;;;;;;;5158869;27;20063;-59
2023/03/07 14:08:44;;;;;;;3.50;1.10;;;;;;;;;;5155797;27;20087;-59
2023/03/07 14:11:18;;;;;;;4.22;0.95;;;;;;;;;;5158396;27;20051;-60
2023/03/07 14:13:51;;;;;;;2.05;0.90;;;;;;;;;;5162826;27;20055;-59
2023/03/07 14:16:33;;;;;;;0.95;0.88;;;;;;;;;;5157379;27;20133;-59
2023/03/07 14:19:03;;;;;;;2.95;1.00;;;;;;;;;;5157420;27;20455;-61
2023/03/07 14:21:52;;;;;;;2.38;0.90;;;;;;;;;;5149291;27;20050;-60
2023/03/07 14:24:30;;;;;;;3.10;1.20;;;;;;;;;;5164646;27;20426;-61
2023/03/07 14:26:58;;;;;;;1.42;0.88;;;;;;;;;;5153852;27;20051;-60
2023/03/07 14:29:26;;;;;;;2.35;0.68;;;;;;;;;;5153794;27;20515;-59
2023/03/07 14:31:55;;;;;;;0.95;0.70;;;;;;;;;;5131131;27;20062;-60
2023/03/07 14:34:32;;;;;;;3.13;0.77;;;;;;;;;;5164009;27;20057;-61
2023/03/07 14:37:05;;;;;;;1.60;0.73;;;;;;;;;;5147333;27;20051;-60
2023/03/07 14:39:38;;;;;;;1.58;0.88;;;;;;;;;;5164462;27;20130;-61
2023/03/07 14:42:19;;;;;;;1.73;0.90;;;;;;;;;;5176276;27;20100;-60
2023/03/07 14:45:04;;;;;;;2.63;0.75;;;;;;;;;;5159471;27;20063;-59
2023/03/07 14:47:45;;;;;;;1.30;0.80;;;;;;;;;;5146648;27;20051;-61
2023/03/07 14:50:14;;;;;;;1.60;1.10;;;;;;;;;;5153122;27;20185;-59